createdAt,value
2023-01-30T00:01:06.115Z,26.43
2023-01-30T00:03:34.515Z,26.07
2023-01-30T00:06:01.407Z,26.30
2023-01-30T00:08:28.349Z,25.73
2023-01-30T00:10:55.937Z,26.97
2023-01-30T00:13:22.946Z,23.37
2023-01-30T00:15:51.256Z,25.40
2023-01-30T00:18:18.259Z,24.90
2023-01-30T00:20:45.170Z,23.77
2023-01-30T00:23:12.190Z,25.13
2023-01-30T00:25:39.324Z,24.67
2023-01-30T00:28:07.147Z,23.30
2023-01-30T00:30:34.236Z,24.93
2023-01-30T00:33:01.219Z,23.67
2023-01-30T00:35:30.997Z,27.07
2023-01-30T00:37:59.404Z,26.70
2023-01-30T00:40:29.427Z,28.43
2023-01-30T00:43:15.496Z,28.10
2023-01-30T00:46:04.044Z,25.57
2023-01-30T00:48:32.785Z,27.97
2023-01-30T00:51:00.642Z,24.17
2023-01-30T00:53:27.649Z,20.20
2023-01-30T00:55:55.962Z,27.33
2023-01-30T00:58:24.861Z,31.90
2023-01-30T01:00:52.864Z,26.90
2023-01-30T01:03:20.761Z,18.03
2023-01-30T01:05:48.760Z,26.60
2023-01-30T01:08:16.405Z,26.90
2023-01-30T01:10:44.005Z,28.80
2023-01-30T01:13:10.968Z,26.00
2023-01-30T01:15:38.284Z,22.27
2023-01-30T01:18:05.730Z,25.80
2023-01-30T01:20:32.826Z,23.37
2023-01-30T01:22:59.761Z,25.07
2023-01-30T01:25:26.992Z,26.57
2023-01-30T01:27:54.580Z,21.13
2023-01-30T01:30:21.717Z,23.93
2023-01-30T01:32:48.651Z,26.53
2023-01-30T01:35:16.010Z,28.10
2023-01-30T01:37:43.223Z,23.30
2023-01-30T01:40:37.700Z,26.60
2023-01-30T01:43:23.716Z,33.20
2023-01-30T01:46:03.974Z,18.93
2023-01-30T01:48:40.485Z,27.73
2023-01-30T01:51:28.427Z,27.60
2023-01-30T01:54:10.221Z,29.30
2023-01-30T01:56:42.902Z,27.83
2023-01-30T01:59:28.339Z,27.00
2023-01-30T02:02:01.923Z,26.40
2023-01-30T02:04:51.087Z,29.30
2023-01-30T02:07:20.934Z,31.27
2023-01-30T02:09:49.920Z,29.80
2023-01-30T02:12:16.941Z,17.17
2023-01-30T02:14:44.830Z,17.90
2023-01-30T02:17:12.003Z,25.67
2023-01-30T02:19:44.949Z,27.30
2023-01-30T02:22:51.169Z,24.47
2023-01-30T02:25:33.077Z,27.47
2023-01-30T02:28:11.911Z,27.90
2023-01-30T02:31:13.055Z,30.20
2023-01-30T02:33:41.479Z,24.30
2023-01-30T02:36:30.470Z,22.77
2023-01-30T02:39:40.421Z,32.03
2023-01-30T02:42:26.129Z,29.33
2023-01-30T02:45:01.788Z,33.47
2023-01-30T02:47:47.699Z,21.80
2023-01-30T02:50:32.505Z,25.00
2023-01-30T02:52:59.776Z,30.27
2023-01-30T02:55:29.640Z,28.87
2023-01-30T02:57:57.025Z,25.70
2023-01-30T03:01:20.787Z,25.57
2023-01-30T03:04:27.848Z,25.17
2023-01-30T03:07:25.494Z,25.20
2023-01-30T03:10:10.359Z,21.17
2023-01-30T03:12:54.350Z,26.03
2023-01-30T03:15:46.185Z,27.10
2023-01-30T03:18:13.302Z,24.73
2023-01-30T03:20:41.588Z,24.60
2023-01-30T03:23:09.471Z,26.50
2023-01-30T03:25:41.145Z,25.77
2023-01-30T03:28:09.942Z,27.20
2023-01-30T03:30:37.314Z,26.63
2023-01-30T03:33:04.535Z,24.67
2023-01-30T03:35:31.624Z,30.83
2023-01-30T03:37:59.632Z,26.50
2023-01-30T03:40:26.827Z,22.27
2023-01-30T03:42:53.778Z,28.77
2023-01-30T03:45:20.871Z,29.90
2023-01-30T03:47:47.919Z,19.67
2023-01-30T03:50:14.925Z,27.57
2023-01-30T03:52:41.881Z,32.80
2023-01-30T03:55:09.805Z,27.60
2023-01-30T03:57:36.983Z,33.83
2023-01-30T04:00:04.999Z,24.87
2023-01-30T04:02:31.950Z,31.33
2023-01-30T04:04:59.441Z,32.87
2023-01-30T04:07:30.322Z,32.20
2023-01-30T04:09:57.287Z,30.97
2023-01-30T04:12:24.332Z,33.10
2023-01-30T04:14:51.580Z,30.87
2023-01-30T04:17:18.595Z,29.43
2023-01-30T04:19:45.609Z,28.03
2023-01-30T04:22:12.544Z,28.43
2023-01-30T04:24:39.436Z,33.90
2023-01-30T04:27:06.482Z,22.77
2023-01-30T04:29:33.363Z,35.03
2023-01-30T04:32:00.295Z,33.17
2023-01-30T04:34:27.208Z,31.47
2023-01-30T04:36:54.264Z,35.10
2023-01-30T04:39:22.124Z,32.77
2023-01-30T04:41:49.203Z,31.07
2023-01-30T04:44:16.153Z,30.83
2023-01-30T04:46:43.124Z,34.07
2023-01-30T04:49:11.899Z,29.13
2023-01-30T04:51:39.120Z,26.60
2023-01-30T04:54:06.857Z,35.47
2023-01-30T04:56:33.887Z,29.50
2023-01-30T04:59:00.909Z,31.10
2023-01-30T05:01:33.439Z,32.80
2023-01-30T05:04:00.649Z,32.93
2023-01-30T05:06:27.809Z,31.17
2023-01-30T05:08:57.103Z,32.10
2023-01-30T05:11:27.176Z,34.40
2023-01-30T05:13:54.546Z,33.77
2023-01-30T05:16:23.594Z,33.67
2023-01-30T05:18:51.517Z,31.27
2023-01-30T05:21:23.226Z,29.87
2023-01-30T05:23:53.336Z,34.63
2023-01-30T05:26:20.538Z,33.33
2023-01-30T05:28:58.047Z,25.73
2023-01-30T05:31:25.592Z,31.07
2023-01-30T05:33:53.209Z,31.23
2023-01-30T05:36:24.801Z,28.03
2023-01-30T05:38:51.752Z,32.17
2023-01-30T05:41:20.250Z,27.53
2023-01-30T05:43:51.558Z,34.33
2023-01-30T05:46:19.182Z,29.30
2023-01-30T05:48:47.267Z,27.47
2023-01-30T05:51:23.193Z,29.40
2023-01-30T05:53:50.511Z,28.10
2023-01-30T05:56:19.263Z,28.90
2023-01-30T05:58:56.923Z,28.67
2023-01-30T06:01:24.405Z,28.57
2023-01-30T06:03:51.506Z,28.83
2023-01-30T06:06:20.253Z,26.47
2023-01-30T06:08:47.531Z,23.43
2023-01-30T06:11:18.205Z,24.73
2023-01-30T06:13:46.100Z,24.80
2023-01-30T06:16:15.294Z,16.47
2023-01-30T06:18:42.594Z,24.73
2023-01-30T06:21:10.672Z,26.97
2023-01-30T06:23:39.038Z,20.57
2023-01-30T06:26:08.846Z,27.60
2023-01-30T06:28:37.711Z,28.30
2023-01-30T06:31:08.109Z,19.30
2023-01-30T06:33:35.304Z,27.00
2023-01-30T06:36:02.295Z,24.07
2023-01-30T06:38:29.282Z,18.30
2023-01-30T06:40:56.337Z,17.90
2023-01-30T06:43:23.434Z,23.90
2023-01-30T06:45:50.706Z,20.63
2023-01-30T06:48:17.770Z,18.87
2023-01-30T06:50:48.319Z,17.90
2023-01-30T06:53:15.425Z,22.97
2023-01-30T06:55:42.446Z,18.67
2023-01-30T06:58:15.703Z,17.80
2023-01-30T07:00:43.737Z,18.47
2023-01-30T07:03:17.226Z,21.33
2023-01-30T07:05:47.069Z,17.00
2023-01-30T07:08:16.327Z,17.17
2023-01-30T07:10:44.669Z,24.70
2023-01-30T07:13:12.378Z,16.47
2023-01-30T07:15:39.377Z,21.87
2023-01-30T07:18:06.524Z,18.03
2023-01-30T07:20:33.640Z,16.67
2023-01-30T07:23:00.603Z,21.23
2023-01-30T07:25:29.792Z,14.60
2023-01-30T07:28:02.164Z,14.83
2023-01-30T07:30:32.755Z,12.97
2023-01-30T07:33:00.717Z,12.83
2023-01-30T07:35:31.714Z,12.43
2023-01-30T07:37:58.996Z,13.97
2023-01-30T07:40:27.140Z,10.27
2023-01-30T07:43:08.286Z,12.57
2023-01-30T07:45:42.261Z,10.10
2023-01-30T07:48:12.267Z,8.43
2023-01-30T07:50:40.167Z,12.53
2023-01-30T07:53:10.438Z,11.40
2023-01-30T07:55:37.841Z,8.87
2023-01-30T07:58:05.048Z,11.07
2023-01-30T08:00:32.573Z,8.67
2023-01-30T08:03:00.843Z,12.87
2023-01-30T08:05:28.418Z,8.53
2023-01-30T08:07:58.397Z,11.50
2023-01-30T08:10:25.305Z,14.50
2023-01-30T08:12:52.814Z,13.70
2023-01-30T08:15:22.772Z,10.87
2023-01-30T08:17:57.794Z,15.00
2023-01-30T08:20:26.581Z,12.30
2023-01-30T08:22:54.384Z,11.50
2023-01-30T08:25:22.091Z,13.60
2023-01-30T08:27:49.447Z,13.40
2023-01-30T08:30:17.621Z,9.67
2023-01-30T08:32:45.048Z,10.37
2023-01-30T08:35:12.195Z,9.77
2023-01-30T08:37:40.974Z,10.57
2023-01-30T08:40:10.066Z,9.87
2023-01-30T08:42:37.019Z,9.30
2023-01-30T08:45:04.695Z,10.70
2023-01-30T08:47:32.179Z,11.77
2023-01-30T08:49:59.075Z,11.27
2023-01-30T08:52:26.054Z,9.23
2023-01-30T08:54:53.609Z,8.07
2023-01-30T08:57:20.612Z,8.97
2023-01-30T08:59:47.837Z,13.70
2023-01-30T09:02:14.812Z,6.83
2023-01-30T09:04:41.900Z,6.87
2023-01-30T09:07:09.041Z,4.87
2023-01-30T09:09:36.155Z,8.50
2023-01-30T09:12:03.105Z,8.30
2023-01-30T09:14:30.050Z,9.03
2023-01-30T09:16:57.213Z,7.67
2023-01-30T09:19:28.591Z,7.37
2023-01-30T09:21:56.154Z,6.33
2023-01-30T09:24:26.958Z,5.10
2023-01-30T09:26:59.200Z,6.10
2023-01-30T09:29:27.631Z,6.53
2023-01-30T09:31:59.172Z,6.20
2023-01-30T09:34:29.035Z,8.20
2023-01-30T09:37:00.353Z,7.80
2023-01-30T09:39:29.164Z,7.93
2023-01-30T09:42:04.996Z,9.40
2023-01-30T09:45:02.839Z,11.87
2023-01-30T09:47:39.640Z,7.77
2023-01-30T09:50:18.906Z,6.93
2023-01-30T09:52:59.753Z,8.33
2023-01-30T09:55:34.473Z,4.57
2023-01-30T09:58:01.697Z,8.27
2023-01-30T10:00:39.467Z,6.50
2023-01-30T10:03:09.326Z,7.83
2023-01-30T10:05:59.625Z,6.00
2023-01-30T10:08:51.411Z,6.13
2023-01-30T10:11:28.133Z,6.03
2023-01-30T10:14:13.216Z,5.43
2023-01-30T10:17:06.913Z,5.40
2023-01-30T10:19:48.419Z,6.60
2023-01-30T10:22:33.558Z,7.10
2023-01-30T10:25:15.387Z,5.60
2023-01-30T10:27:56.687Z,4.50
2023-01-30T10:30:24.436Z,5.73
2023-01-30T10:33:37.921Z,3.97
2023-01-30T10:36:10.536Z,4.30
2023-01-30T10:38:52.882Z,5.07
2023-01-30T10:41:54.137Z,4.33
2023-01-30T10:44:23.224Z,5.23
2023-01-30T10:46:52.884Z,4.87
2023-01-30T10:49:28.928Z,5.80
2023-01-30T10:52:41.112Z,5.43
2023-01-30T10:55:37.627Z,5.10
2023-01-30T10:58:16.772Z,10.20
2023-01-30T11:01:08.292Z,4.47
2023-01-30T11:03:35.255Z,4.60
2023-01-30T11:06:11.728Z,4.07
2023-01-30T11:08:38.889Z,3.40
2023-01-30T11:11:55.874Z,7.63
2023-01-30T11:14:22.843Z,5.67
2023-01-30T11:16:58.603Z,5.60
2023-01-30T11:19:34.040Z,5.00
2023-01-30T11:22:04.805Z,4.33
2023-01-30T11:24:44.503Z,4.80
2023-01-30T11:27:24.913Z,5.13
2023-01-30T11:30:06.359Z,3.60
2023-01-30T11:32:33.514Z,5.43
2023-01-30T11:35:06.589Z,4.10
2023-01-30T11:37:40.034Z,2.50
2023-01-30T11:40:31.274Z,3.53
2023-01-30T11:43:10.823Z,4.60
2023-01-30T11:45:49.350Z,2.40
2023-01-30T11:48:33.920Z,3.90
2023-01-30T11:51:13.612Z,2.60
2023-01-30T11:53:56.792Z,2.37
2023-01-30T11:56:40.347Z,4.43
2023-01-30T11:59:31.481Z,3.27
2023-01-30T12:02:20.412Z,6.70
2023-01-30T12:04:54.084Z,9.90
2023-01-30T12:07:31.302Z,5.63
2023-01-30T12:09:59.783Z,8.10
2023-01-30T12:12:49.538Z,7.20
2023-01-30T12:15:27.204Z,2.90
2023-01-30T12:18:32.903Z,4.67
2023-01-30T12:21:11.450Z,5.73
2023-01-30T12:23:56.497Z,4.83
2023-01-30T12:26:38.051Z,3.97
2023-01-30T12:29:48.699Z,3.60
2023-01-30T12:32:20.819Z,5.80
2023-01-30T12:34:48.629Z,4.63
2023-01-30T12:37:59.824Z,5.70
2023-01-30T12:40:32.890Z,2.97
2023-01-30T12:43:28.741Z,3.27
2023-01-30T12:46:13.385Z,3.90
2023-01-30T12:49:10.376Z,4.47
2023-01-30T12:51:59.686Z,4.80
2023-01-30T12:55:08.535Z,4.17
2023-01-30T12:58:47.688Z,4.13
2023-01-30T13:01:40.285Z,3.50
2023-01-30T13:04:40.033Z,3.70
2023-01-30T13:07:28.987Z,3.17
2023-01-30T13:10:16.669Z,3.60
2023-01-30T13:13:08.064Z,3.80
2023-01-30T13:16:05.244Z,4.10
2023-01-30T13:19:07.080Z,4.00
2023-01-30T13:21:43.255Z,3.80
2023-01-30T13:24:47.501Z,5.27
2023-01-30T13:27:21.129Z,2.67
2023-01-30T13:29:49.455Z,6.10
2023-01-30T13:32:39.429Z,6.77
2023-01-30T13:35:17.778Z,4.67
2023-01-30T13:37:49.001Z,6.73
2023-01-30T13:40:25.874Z,3.77
2023-01-30T13:43:01.843Z,4.20
2023-01-30T13:45:43.751Z,4.20
2023-01-30T13:48:50.172Z,4.77
2023-01-30T13:51:43.547Z,5.90
2023-01-30T13:54:22.645Z,2.70
2023-01-30T13:57:37.078Z,4.20
2023-01-30T14:00:39.383Z,4.37
2023-01-30T14:03:06.283Z,6.63
2023-01-30T14:05:51.699Z,5.37
2023-01-30T14:08:28.136Z,5.53
2023-01-30T14:10:57.769Z,4.17
2023-01-30T14:13:27.212Z,4.77
2023-01-30T14:16:05.668Z,3.57
2023-01-30T14:18:36.331Z,5.83
2023-01-30T14:21:24.710Z,4.60
2023-01-30T14:23:58.614Z,4.27
2023-01-30T14:26:48.436Z,4.77
2023-01-30T14:29:43.285Z,6.40
2023-01-30T14:32:13.766Z,4.53
2023-01-30T14:35:01.655Z,9.27
2023-01-30T14:37:42.160Z,5.70
2023-01-30T14:40:32.403Z,8.13
2023-01-30T14:43:17.883Z,6.13
2023-01-30T14:45:53.007Z,8.77
2023-01-30T14:49:05.519Z,7.03
2023-01-30T14:51:43.735Z,6.30
2023-01-30T14:54:16.903Z,7.53
2023-01-30T14:57:24.035Z,7.07
2023-01-30T15:00:15.933Z,18.10
2023-01-30T15:02:54.674Z,6.33
2023-01-30T15:05:34.283Z,8.00
2023-01-30T15:08:23.871Z,7.50
2023-01-30T15:11:24.103Z,9.87
2023-01-30T15:14:17.820Z,6.70
2023-01-30T15:17:05.781Z,7.77
2023-01-30T15:20:06.814Z,14.30
2023-01-30T15:22:55.353Z,13.33
2023-01-30T15:25:45.338Z,5.60
2023-01-30T15:28:28.359Z,7.03
2023-01-30T15:31:18.617Z,6.90
2023-01-30T15:33:56.851Z,9.30
2023-01-30T15:36:30.498Z,5.00
2023-01-30T15:39:02.941Z,6.43
2023-01-30T15:41:37.845Z,7.90
2023-01-30T15:44:22.063Z,7.83
2023-01-30T15:47:17.835Z,8.57
2023-01-30T15:50:05.737Z,7.97
2023-01-30T15:52:49.563Z,9.23
2023-01-30T15:55:34.030Z,15.03
2023-01-30T15:58:18.171Z,5.67
2023-01-30T16:00:59.809Z,6.47
2023-01-30T16:03:36.944Z,8.40
2023-01-30T16:06:04.385Z,7.50
2023-01-30T16:08:35.229Z,11.97
2023-01-30T16:11:03.419Z,7.47
2023-01-30T16:13:30.581Z,8.90
2023-01-30T16:16:12.903Z,9.27
2023-01-30T16:18:57.303Z,8.53
2023-01-30T16:21:47.218Z,8.80
2023-01-30T16:24:33.149Z,11.57
2023-01-30T16:27:18.636Z,7.20
2023-01-30T16:29:53.475Z,4.33
2023-01-30T16:32:31.920Z,10.83
2023-01-30T16:35:27.113Z,11.60
2023-01-30T16:37:58.220Z,10.60
2023-01-30T16:40:46.430Z,6.77
2023-01-30T16:43:26.285Z,5.83
2023-01-30T16:45:53.329Z,7.43
2023-01-30T16:48:20.399Z,10.00
2023-01-30T16:50:49.754Z,8.90
2023-01-30T16:53:22.554Z,9.70
2023-01-30T16:56:03.923Z,6.87
2023-01-30T16:58:36.135Z,4.90
2023-01-30T17:01:08.324Z,9.40
2023-01-30T17:03:41.203Z,8.03
2023-01-30T17:06:23.233Z,7.50
2023-01-30T17:08:55.635Z,7.13
2023-01-30T17:11:36.504Z,6.23
2023-01-30T17:14:33.046Z,6.63
2023-01-30T17:17:04.990Z,4.87
2023-01-30T17:19:32.201Z,5.77
2023-01-30T17:22:01.990Z,11.63
2023-01-30T17:24:29.567Z,5.23
2023-01-30T17:27:02.023Z,7.37
2023-01-30T17:29:42.433Z,7.33
2023-01-30T17:32:14.032Z,10.30
2023-01-30T17:34:41.780Z,9.33
2023-01-30T17:37:18.532Z,5.47
2023-01-30T17:39:46.497Z,6.47
2023-01-30T17:42:15.654Z,6.27
2023-01-30T17:44:42.557Z,8.57
2023-01-30T17:47:12.419Z,5.90
2023-01-30T17:49:40.357Z,6.43
2023-01-30T17:52:07.378Z,6.30
2023-01-30T17:54:34.722Z,7.50
2023-01-30T17:57:07.454Z,5.47
2023-01-30T17:59:34.369Z,7.43
2023-01-30T18:02:01.717Z,7.77
2023-01-30T18:04:28.698Z,11.00
2023-01-30T18:07:09.934Z,8.00
2023-01-30T18:09:36.946Z,9.60
2023-01-30T18:12:04.813Z,7.77
2023-01-30T18:14:31.777Z,7.40
2023-01-30T18:17:01.925Z,6.50
2023-01-30T18:19:31.922Z,6.10
2023-01-30T18:21:58.984Z,6.50
2023-01-30T18:24:26.179Z,6.93
2023-01-30T18:26:53.305Z,8.73
2023-01-30T18:29:20.268Z,8.10
2023-01-30T18:31:47.806Z,7.70
2023-01-30T18:34:14.905Z,9.40
2023-01-30T18:36:42.452Z,6.37
2023-01-30T18:39:11.618Z,6.67
2023-01-30T18:41:39.213Z,5.93
2023-01-30T18:44:07.399Z,6.70
2023-01-30T18:46:34.831Z,7.57
2023-01-30T18:49:01.814Z,7.80
2023-01-30T18:51:33.934Z,5.00
2023-01-30T18:54:02.052Z,6.70
2023-01-30T18:56:34.157Z,7.83
2023-01-30T18:59:04.570Z,7.00
2023-01-30T19:01:39.036Z,8.93
2023-01-30T19:04:09.543Z,10.10
2023-01-30T19:06:40.344Z,5.23
2023-01-30T19:09:08.778Z,5.30
2023-01-30T19:11:54.365Z,6.73
2023-01-30T19:14:21.532Z,5.80
2023-01-30T19:16:50.359Z,4.90
2023-01-30T19:19:18.634Z,6.90
2023-01-30T19:21:45.694Z,5.27
2023-01-30T19:24:16.345Z,6.33
2023-01-30T19:26:46.276Z,6.43
2023-01-30T19:29:14.164Z,6.90
2023-01-30T19:31:41.796Z,5.70
2023-01-30T19:34:09.003Z,9.10
2023-01-30T19:36:37.477Z,8.43
2023-01-30T19:39:06.393Z,9.77
2023-01-30T19:41:41.084Z,5.17
2023-01-30T19:44:12.077Z,6.77
2023-01-30T19:46:39.090Z,6.00
2023-01-30T19:49:06.335Z,8.97
2023-01-30T19:51:36.132Z,8.67
2023-01-30T19:54:07.599Z,7.37
2023-01-30T19:56:36.756Z,6.83
2023-01-30T19:59:04.263Z,6.50
2023-01-30T20:01:35.558Z,5.17
2023-01-30T20:04:03.951Z,6.80
2023-01-30T20:06:33.395Z,6.53
2023-01-30T20:09:11.456Z,6.63
2023-01-30T20:11:41.894Z,6.53
2023-01-30T20:14:11.122Z,6.53
2023-01-30T20:16:38.251Z,6.30
2023-01-30T20:19:09.706Z,9.00
2023-01-30T20:21:36.746Z,7.87
2023-01-30T20:24:05.022Z,6.33
2023-01-30T20:26:36.621Z,10.77
2023-01-30T20:29:05.711Z,6.50
2023-01-30T20:31:35.109Z,6.97
2023-01-30T20:34:07.540Z,7.73
2023-01-30T20:36:34.687Z,5.30
2023-01-30T20:39:04.246Z,7.90
2023-01-30T20:41:36.029Z,6.07
2023-01-30T20:44:04.102Z,8.33
2023-01-30T20:46:41.779Z,5.50
2023-01-30T20:49:17.962Z,10.03
2023-01-30T20:51:47.131Z,6.13
2023-01-30T20:54:16.419Z,5.40
2023-01-30T20:56:49.973Z,9.43
2023-01-30T20:59:21.079Z,5.47
2023-01-30T21:01:48.004Z,5.43
2023-01-30T21:04:17.857Z,7.17
2023-01-30T21:06:46.925Z,6.40
2023-01-30T21:09:21.047Z,6.30
2023-01-30T21:11:51.202Z,6.63
2023-01-30T21:14:18.579Z,11.57
2023-01-30T21:16:46.553Z,7.00
2023-01-30T21:19:17.461Z,5.77
2023-01-30T21:21:52.844Z,9.30
2023-01-30T21:24:24.863Z,5.97
2023-01-30T21:26:52.498Z,5.37
2023-01-30T21:29:23.822Z,7.50
2023-01-30T21:31:51.597Z,5.70
2023-01-30T21:34:19.105Z,6.90
2023-01-30T21:37:09.247Z,8.67
2023-01-30T21:39:55.024Z,5.97
2023-01-30T21:42:40.747Z,4.43
2023-01-30T21:45:08.590Z,6.80
2023-01-30T21:47:36.886Z,5.07
2023-01-30T21:50:04.362Z,6.47
2023-01-30T21:52:33.466Z,3.87
2023-01-30T21:55:00.801Z,6.20
2023-01-30T21:57:27.841Z,5.50
2023-01-30T21:59:55.491Z,4.37
2023-01-30T22:02:22.570Z,6.60
2023-01-30T22:04:49.827Z,3.90
2023-01-30T22:07:16.772Z,10.83
2023-01-30T22:09:43.867Z,10.63
2023-01-30T22:12:11.239Z,5.83
2023-01-30T22:14:38.741Z,5.20
2023-01-30T22:17:05.914Z,5.70
2023-01-30T22:19:35.816Z,5.73
2023-01-30T22:22:04.135Z,5.90
2023-01-30T22:24:31.475Z,5.80
2023-01-30T22:26:58.993Z,5.17
2023-01-30T22:29:25.955Z,5.17
2023-01-30T22:31:53.008Z,7.10
2023-01-30T22:34:20.184Z,5.20
2023-01-30T22:36:48.090Z,6.80
2023-01-30T22:39:14.992Z,5.73
2023-01-30T22:41:41.966Z,11.03
2023-01-30T22:44:10.993Z,10.60
2023-01-30T22:46:40.328Z,6.23
2023-01-30T22:49:10.168Z,5.20
2023-01-30T22:51:40.864Z,5.23
2023-01-30T22:54:18.500Z,6.00
2023-01-30T22:56:49.887Z,6.90
2023-01-30T22:59:16.855Z,8.17
2023-01-30T23:01:50.860Z,8.80
2023-01-30T23:04:21.299Z,6.73
2023-01-30T23:06:49.942Z,4.80
2023-01-30T23:09:22.115Z,5.27
2023-01-30T23:12:15.013Z,6.17
2023-01-30T23:14:43.097Z,9.40
2023-01-30T23:17:29.216Z,5.33
2023-01-30T23:19:56.672Z,8.57
2023-01-30T23:22:24.510Z,5.20
2023-01-30T23:24:51.889Z,5.13
2023-01-30T23:27:20.865Z,4.53
2023-01-30T23:29:47.854Z,5.10
2023-01-30T23:32:15.273Z,7.53
2023-01-30T23:34:42.232Z,5.70
2023-01-30T23:37:09.157Z,4.57
2023-01-30T23:39:36.472Z,6.27
2023-01-30T23:42:03.876Z,4.03
2023-01-30T23:44:30.763Z,5.80
2023-01-30T23:46:57.772Z,8.30
2023-01-30T23:49:24.851Z,8.03
2023-01-30T23:51:51.873Z,3.90
2023-01-30T23:54:18.896Z,4.77
2023-01-30T23:56:45.860Z,4.53
2023-01-30T23:59:13.003Z,4.90
